sensor_id;sensor_type;location;lat;lon;timestamp;pressure;altitude;pressure_sealevel;temperature;humidity
72794;BME280;63436;26.334;50.194;2023-05-15T00:02:08;100617.43;;;30.81;19.43
72794;BME280;63436;26.334;50.194;2023-05-15T00:04:35;100612.96;;;30.29;20.11
72794;BME280;63436;26.334;50.194;2023-05-15T00:07:01;100620.32;;;30.76;19.95
72794;BME280;63436;26.334;50.194;2023-05-15T00:09:27;100614.71;;;30.77;19.94
72794;BME280;63436;26.334;50.194;2023-05-15T00:11:53;100616.00;;;30.85;20.08
72794;BME280;63436;26.334;50.194;2023-05-15T00:14:19;100608.20;;;30.52;20.50
72794;BME280;63436;26.334;50.194;2023-05-15T00:16:45;100610.94;;;30.53;20.74
72794;BME280;63436;26.334;50.194;2023-05-15T00:19:11;100601.86;;;30.35;20.95
72794;BME280;63436;26.334;50.194;2023-05-15T00:21:38;100604.06;;;30.20;21.20
72794;BME280;63436;26.334;50.194;2023-05-15T00:24:04;100603.09;;;30.31;21.33
72794;BME280;63436;26.334;50.194;2023-05-15T00:26:36;100597.51;;;30.26;21.49
72794;BME280;63436;26.334;50.194;2023-05-15T00:28:56;100592.29;;;28.88;22.94
72794;BME280;63436;26.334;50.194;2023-05-15T00:31:23;100586.45;;;29.86;21.74
72794;BME280;63436;26.334;50.194;2023-05-15T00:33:49;100587.23;;;30.59;21.36
72794;BME280;63436;26.334;50.194;2023-05-15T00:36:14;100584.76;;;30.48;21.51
72794;BME280;63436;26.334;50.194;2023-05-15T00:38:40;100585.25;;;30.41;21.62
72794;BME280;63436;26.334;50.194;2023-05-15T00:41:08;100586.90;;;30.49;21.35
72794;BME280;63436;26.334;50.194;2023-05-15T00:43:34;100583.83;;;30.14;22.11
72794;BME280;63436;26.334;50.194;2023-05-15T00:46:00;100582.46;;;29.99;21.80
72794;BME280;63436;26.334;50.194;2023-05-15T00:48:27;100591.65;;;30.21;22.39
72794;BME280;63436;26.334;50.194;2023-05-15T00:50:53;100600.47;;;30.58;21.74
72794;BME280;63436;26.334;50.194;2023-05-15T00:53:19;100603.60;;;30.82;21.71
72794;BME280;63436;26.334;50.194;2023-05-15T00:55:46;100601.47;;;29.96;22.47
72794;BME280;63436;26.334;50.194;2023-05-15T00:58:13;100604.79;;;30.58;21.99
72794;BME280;63436;26.334;50.194;2023-05-15T01:00:38;100606.03;;;30.09;22.54
72794;BME280;63436;26.334;50.194;2023-05-15T01:03:04;100610.15;;;29.59;22.98
72794;BME280;63436;26.334;50.194;2023-05-15T01:05:30;100610.54;;;29.02;23.12
72794;BME280;63436;26.334;50.194;2023-05-15T01:08:03;100619.03;;;30.75;22.09
72794;BME280;63436;26.334;50.194;2023-05-15T01:10:23;100614.31;;;30.19;22.33
72794;BME280;63436;26.334;50.194;2023-05-15T01:12:52;100613.64;;;29.43;23.39
72794;BME280;63436;26.334;50.194;2023-05-15T01:15:16;100613.53;;;30.11;22.82
72794;BME280;63436;26.334;50.194;2023-05-15T01:17:42;100606.50;;;29.99;23.03
72794;BME280;63436;26.334;50.194;2023-05-15T01:20:10;100610.49;;;28.93;23.92
72794;BME280;63436;26.334;50.194;2023-05-15T01:22:44;100612.77;;;30.13;23.22
72794;BME280;63436;26.334;50.194;2023-05-15T01:27:28;100625.04;;;30.08;23.76
72794;BME280;63436;26.334;50.194;2023-05-15T01:29:58;100614.37;;;28.48;25.43
72794;BME280;63436;26.334;50.194;2023-05-15T01:32:19;100614.51;;;29.66;24.50
72794;BME280;63436;26.334;50.194;2023-05-15T01:34:44;100617.19;;;29.94;24.59
72794;BME280;63436;26.334;50.194;2023-05-15T01:37:10;100621.51;;;29.57;25.01
72794;BME280;63436;26.334;50.194;2023-05-15T01:39:35;100629.50;;;28.49;26.19
72794;BME280;63436;26.334;50.194;2023-05-15T01:42:04;100632.00;;;29.99;25.16
72794;BME280;63436;26.334;50.194;2023-05-15T01:44:27;100629.30;;;30.05;25.32
72794;BME280;63436;26.334;50.194;2023-05-15T01:46:51;100632.17;;;30.63;24.69
72794;BME280;63436;26.334;50.194;2023-05-15T01:49:18;100634.56;;;29.55;25.39
72794;BME280;63436;26.334;50.194;2023-05-15T01:51:44;100641.58;;;30.84;24.59
72794;BME280;63436;26.334;50.194;2023-05-15T01:54:09;100640.37;;;30.82;24.77
72794;BME280;63436;26.334;50.194;2023-05-15T01:56:35;100643.51;;;30.59;24.69
72794;BME280;63436;26.334;50.194;2023-05-15T01:59:02;100641.22;;;30.42;24.70
72794;BME280;63436;26.334;50.194;2023-05-15T02:01:29;100649.17;;;30.19;24.78
72794;BME280;63436;26.334;50.194;2023-05-15T02:03:54;100648.20;;;30.12;25.57
72794;BME280;63436;26.334;50.194;2023-05-15T02:06:20;100644.34;;;30.52;25.10
72794;BME280;63436;26.334;50.194;2023-05-15T02:08:47;100647.96;;;30.30;25.32
72794;BME280;63436;26.334;50.194;2023-05-15T02:11:12;100647.41;;;28.81;27.40
72794;BME280;63436;26.334;50.194;2023-05-15T02:13:37;100648.55;;;29.82;26.47
72794;BME280;63436;26.334;50.194;2023-05-15T02:16:03;100647.33;;;29.75;26.67
72794;BME280;63436;26.334;50.194;2023-05-15T02:18:27;100659.21;;;30.38;26.53
72794;BME280;63436;26.334;50.194;2023-05-15T02:20:53;100655.00;;;30.82;25.74
72794;BME280;63436;26.334;50.194;2023-05-15T02:23:19;100662.33;;;30.31;26.43
72794;BME280;63436;26.334;50.194;2023-05-15T02:28:16;100666.05;;;30.33;26.55
72794;BME280;63436;26.334;50.194;2023-05-15T02:30:41;100625.23;;;29.54;26.66
72794;BME280;63436;26.334;50.194;2023-05-15T02:33:09;100658.76;;;29.49;27.64
72794;BME280;63436;26.334;50.194;2023-05-15T02:35:36;100659.83;;;30.00;27.04
72794;BME280;63436;26.334;50.194;2023-05-15T02:37:54;100666.95;;;30.22;26.92
72794;BME280;63436;26.334;50.194;2023-05-15T02:40:19;100680.34;;;30.13;27.27
72794;BME280;63436;26.334;50.194;2023-05-15T02:42:45;100668.93;;;30.19;27.08
72794;BME280;63436;26.334;50.194;2023-05-15T02:45:10;100662.64;;;30.33;27.00
72794;BME280;63436;26.334;50.194;2023-05-15T02:47:35;100682.49;;;30.94;26.52
72794;BME280;63436;26.334;50.194;2023-05-15T02:50:00;100688.91;;;30.03;27.58
72794;BME280;63436;26.334;50.194;2023-05-15T02:52:30;100681.51;;;30.60;27.08
72794;BME280;63436;26.334;50.194;2023-05-15T02:54:51;100692.10;;;30.95;26.81
72794;BME280;63436;26.334;50.194;2023-05-15T02:57:16;100683.73;;;30.85;26.78
72794;BME280;63436;26.334;50.194;2023-05-15T02:59:42;100706.99;;;30.33;27.92
72794;BME280;63436;26.334;50.194;2023-05-15T03:02:07;100682.98;;;30.96;26.89
72794;BME280;63436;26.334;50.194;2023-05-15T03:04:33;100709.27;;;30.97;27.14
72794;BME280;63436;26.334;50.194;2023-05-15T03:06:59;100714.88;;;30.04;28.10
72794;BME280;63436;26.334;50.194;2023-05-15T03:09:24;100707.51;;;30.43;27.25
72794;BME280;63436;26.334;50.194;2023-05-15T03:11:49;100711.01;;;30.39;27.59
72794;BME280;63436;26.334;50.194;2023-05-15T03:14:16;100708.31;;;29.37;28.49
72794;BME280;63436;26.334;50.194;2023-05-15T03:16:40;100710.71;;;29.85;28.12
72794;BME280;63436;26.334;50.194;2023-05-15T03:19:07;100716.05;;;29.95;27.83
72794;BME280;63436;26.334;50.194;2023-05-15T03:21:34;100724.26;;;29.92;28.28
72794;BME280;63436;26.334;50.194;2023-05-15T03:24:00;100717.18;;;30.97;27.10
72794;BME280;63436;26.334;50.194;2023-05-15T03:26:26;100719.24;;;28.68;29.20
72794;BME280;63436;26.334;50.194;2023-05-15T03:28:52;100724.60;;;28.31;29.70
72794;BME280;63436;26.334;50.194;2023-05-15T03:31:18;100730.83;;;29.93;28.57
72794;BME280;63436;26.334;50.194;2023-05-15T03:33:45;100726.53;;;29.30;28.89
72794;BME280;63436;26.334;50.194;2023-05-15T03:36:10;100724.85;;;29.30;29.07
72794;BME280;63436;26.334;50.194;2023-05-15T03:38:36;100727.10;;;30.00;28.45
72794;BME280;63436;26.334;50.194;2023-05-15T03:41:01;100727.97;;;28.81;29.68
72794;BME280;63436;26.334;50.194;2023-05-15T03:43:29;100725.85;;;28.99;29.44
72794;BME280;63436;26.334;50.194;2023-05-15T03:45:53;100720.94;;;29.97;28.30
72794;BME280;63436;26.334;50.194;2023-05-15T03:48:19;100721.83;;;30.28;28.27
72794;BME280;63436;26.334;50.194;2023-05-15T03:50:45;100719.80;;;29.31;28.98
72794;BME280;63436;26.334;50.194;2023-05-15T03:53:10;100724.12;;;31.00;27.45
72794;BME280;63436;26.334;50.194;2023-05-15T03:55:35;100729.94;;;29.04;29.65
72794;BME280;63436;26.334;50.194;2023-05-15T03:58:01;100731.41;;;30.59;27.71
72794;BME280;63436;26.334;50.194;2023-05-15T04:00:27;100736.07;;;29.62;28.57
72794;BME280;63436;26.334;50.194;2023-05-15T04:02:52;100736.21;;;29.83;28.34
72794;BME280;63436;26.334;50.194;2023-05-15T04:05:17;100737.35;;;30.42;27.83
72794;BME280;63436;26.334;50.194;2023-05-15T04:07:42;100754.41;;;28.41;29.22
72794;BME280;63436;26.334;50.194;2023-05-15T04:10:09;100763.31;;;29.49;28.06
72794;BME280;63436;26.334;50.194;2023-05-15T04:12:37;100757.99;;;30.97;27.05
72794;BME280;63436;26.334;50.194;2023-05-15T04:15:13;100757.92;;;30.77;26.67
72794;BME280;63436;26.334;50.194;2023-05-15T04:17:29;100753.69;;;30.51;26.75
72794;BME280;63436;26.334;50.194;2023-05-15T04:19:56;100754.95;;;31.22;25.95
72794;BME280;63436;26.334;50.194;2023-05-15T04:22:26;100751.74;;;29.54;27.93
72794;BME280;63436;26.334;50.194;2023-05-15T04:24:47;100759.31;;;30.96;26.69
72794;BME280;63436;26.334;50.194;2023-05-15T04:27:14;100760.20;;;31.35;26.14
72794;BME280;63436;26.334;50.194;2023-05-15T04:29:39;100754.41;;;30.24;26.85
72794;BME280;63436;26.334;50.194;2023-05-15T04:32:05;100762.56;;;31.44;25.64
72794;BME280;63436;26.334;50.194;2023-05-15T04:34:33;100770.12;;;31.68;25.24
72794;BME280;63436;26.334;50.194;2023-05-15T04:36:58;100766.08;;;32.11;25.30
72794;BME280;63436;26.334;50.194;2023-05-15T04:39:25;100768.07;;;31.07;25.89
72794;BME280;63436;26.334;50.194;2023-05-15T04:41:50;100769.50;;;31.15;25.42
72794;BME280;63436;26.334;50.194;2023-05-15T04:44:15;100770.23;;;30.46;25.91
72794;BME280;63436;26.334;50.194;2023-05-15T04:46:40;100759.66;;;30.46;25.82
72794;BME280;63436;26.334;50.194;2023-05-15T04:49:05;100754.05;;;30.01;25.70
72794;BME280;63436;26.334;50.194;2023-05-15T04:51:31;100779.59;;;31.21;24.54
72794;BME280;63436;26.334;50.194;2023-05-15T04:53:57;100793.23;;;29.94;25.15
72794;BME280;63436;26.334;50.194;2023-05-15T04:56:23;100790.55;;;30.22;24.89
72794;BME280;63436;26.334;50.194;2023-05-15T04:58:48;100800.91;;;31.37;24.55
72794;BME280;63436;26.334;50.194;2023-05-15T05:01:14;100805.23;;;31.70;23.75
72794;BME280;63436;26.334;50.194;2023-05-15T05:03:39;100814.52;;;31.41;24.29
72794;BME280;63436;26.334;50.194;2023-05-15T05:06:04;100809.43;;;32.11;23.19
72794;BME280;63436;26.334;50.194;2023-05-15T05:08:29;100815.26;;;31.01;24.38
72794;BME280;63436;26.334;50.194;2023-05-15T05:10:56;100823.89;;;31.75;23.79
72794;BME280;63436;26.334;50.194;2023-05-15T05:13:27;100825.51;;;32.07;22.39
72794;BME280;63436;26.334;50.194;2023-05-15T05:15:48;100829.15;;;31.40;21.99
72794;BME280;63436;26.334;50.194;2023-05-15T05:18:14;100838.23;;;30.51;22.87
72794;BME280;63436;26.334;50.194;2023-05-15T05:20:40;100829.94;;;31.19;23.22
72794;BME280;63436;26.334;50.194;2023-05-15T05:23:06;100827.23;;;32.78;20.60
72794;BME280;63436;26.334;50.194;2023-05-15T05:25:37;100826.21;;;31.47;21.58
72794;BME280;63436;26.334;50.194;2023-05-15T05:27:58;100822.57;;;31.57;22.67
72794;BME280;63436;26.334;50.194;2023-05-15T05:30:26;100825.09;;;32.51;21.41
72794;BME280;63436;26.334;50.194;2023-05-15T05:32:51;100826.59;;;32.37;20.58
72794;BME280;63436;26.334;50.194;2023-05-15T05:35:17;100834.19;;;33.35;19.42
72794;BME280;63436;26.334;50.194;2023-05-15T05:37:43;100838.03;;;33.19;19.89
72794;BME280;63436;26.334;50.194;2023-05-15T05:40:11;100845.26;;;32.25;20.40
72794;BME280;63436;26.334;50.194;2023-05-15T05:42:35;100853.53;;;32.83;19.34
72794;BME280;63436;26.334;50.194;2023-05-15T05:45:02;100862.33;;;32.95;19.51
72794;BME280;63436;26.334;50.194;2023-05-15T05:47:28;100862.99;;;33.24;18.97
72794;BME280;63436;26.334;50.194;2023-05-15T05:49:54;100865.33;;;32.85;18.72
72794;BME280;63436;26.334;50.194;2023-05-15T05:52:20;100859.32;;;33.26;17.50
72794;BME280;63436;26.334;50.194;2023-05-15T05:54:47;100854.53;;;32.57;18.57
72794;BME280;63436;26.334;50.194;2023-05-15T05:57:12;100860.09;;;31.68;18.91
72794;BME280;63436;26.334;50.194;2023-05-15T05:59:38;100860.60;;;31.70;17.86
72794;BME280;63436;26.334;50.194;2023-05-15T06:02:06;100861.80;;;31.27;18.84
72794;BME280;63436;26.334;50.194;2023-05-15T06:04:32;100863.20;;;32.16;18.28
72794;BME280;63436;26.334;50.194;2023-05-15T06:06:57;100851.27;;;31.47;18.88
72794;BME280;63436;26.334;50.194;2023-05-15T06:09:23;100857.44;;;31.01;19.09
72794;BME280;63436;26.334;50.194;2023-05-15T06:11:48;100858.19;;;31.55;18.85
72794;BME280;63436;26.334;50.194;2023-05-15T06:14:25;100868.70;;;32.74;18.60
72794;BME280;63436;26.334;50.194;2023-05-15T06:16:41;100858.80;;;32.60;18.61
72794;BME280;63436;26.334;50.194;2023-05-15T06:19:07;100864.04;;;31.15;20.41
72794;BME280;63436;26.334;50.194;2023-05-15T06:21:33;100854.90;;;32.28;20.45
72794;BME280;63436;26.334;50.194;2023-05-15T06:23:59;100860.10;;;32.27;20.08
72794;BME280;63436;26.334;50.194;2023-05-15T06:26:26;100863.67;;;32.55;18.60
72794;BME280;63436;26.334;50.194;2023-05-15T06:28:52;100865.83;;;31.91;18.83
72794;BME280;63436;26.334;50.194;2023-05-15T06:31:18;100864.78;;;31.59;19.59
72794;BME280;63436;26.334;50.194;2023-05-15T06:33:44;100864.08;;;33.18;18.60
72794;BME280;63436;26.334;50.194;2023-05-15T06:36:10;100865.13;;;32.28;19.33
72794;BME280;63436;26.334;50.194;2023-05-15T06:38:36;100867.59;;;31.84;18.97
72794;BME280;63436;26.334;50.194;2023-05-15T06:41:02;100862.04;;;33.29;16.66
72794;BME280;63436;26.334;50.194;2023-05-15T06:43:28;100867.75;;;31.83;17.95
72794;BME280;63436;26.334;50.194;2023-05-15T06:45:54;100867.38;;;31.85;17.77
72794;BME280;63436;26.334;50.194;2023-05-15T06:48:20;100867.68;;;32.20;18.28
72794;BME280;63436;26.334;50.194;2023-05-15T06:50:46;100858.24;;;30.96;18.09
72794;BME280;63436;26.334;50.194;2023-05-15T06:53:13;100856.50;;;32.89;17.28
72794;BME280;63436;26.334;50.194;2023-05-15T06:55:39;100851.41;;;32.62;16.52
72794;BME280;63436;26.334;50.194;2023-05-15T06:58:05;100858.54;;;32.44;16.84
72794;BME280;63436;26.334;50.194;2023-05-15T07:00:32;100853.34;;;32.47;15.89
72794;BME280;63436;26.334;50.194;2023-05-15T07:02:58;100849.51;;;33.12;16.05
72794;BME280;63436;26.334;50.194;2023-05-15T07:05:25;100850.30;;;33.06;16.23
72794;BME280;63436;26.334;50.194;2023-05-15T07:07:51;100848.40;;;33.33;15.78
72794;BME280;63436;26.334;50.194;2023-05-15T07:10:16;100846.08;;;32.81;16.95
72794;BME280;63436;26.334;50.194;2023-05-15T07:15:10;100842.48;;;32.80;17.19
72794;BME280;63436;26.334;50.194;2023-05-15T07:17:36;100842.00;;;33.24;16.38
72794;BME280;63436;26.334;50.194;2023-05-15T07:20:03;100840.13;;;34.10;15.05
72794;BME280;63436;26.334;50.194;2023-05-15T07:22:29;100846.53;;;33.59;16.38
72794;BME280;63436;26.334;50.194;2023-05-15T07:24:54;100845.83;;;32.40;17.30
72794;BME280;63436;26.334;50.194;2023-05-15T07:27:20;100846.74;;;31.40;18.22
72794;BME280;63436;26.334;50.194;2023-05-15T07:29:46;100839.42;;;32.24;17.79
72794;BME280;63436;26.334;50.194;2023-05-15T07:32:13;100836.09;;;32.24;17.98
72794;BME280;63436;26.334;50.194;2023-05-15T07:34:38;100826.60;;;33.16;17.78
72794;BME280;63436;26.334;50.194;2023-05-15T07:37:04;100826.69;;;32.86;16.62
72794;BME280;63436;26.334;50.194;2023-05-15T07:39:30;100822.80;;;32.73;16.14
72794;BME280;63436;26.334;50.194;2023-05-15T07:41:56;100823.60;;;32.32;16.16
72794;BME280;63436;26.334;50.194;2023-05-15T07:44:22;100823.70;;;32.64;15.56
72794;BME280;63436;26.334;50.194;2023-05-15T07:46:47;100825.14;;;33.57;14.19
72794;BME280;63436;26.334;50.194;2023-05-15T07:49:13;100813.19;;;33.17;13.96
72794;BME280;63436;26.334;50.194;2023-05-15T07:51:39;100814.35;;;32.89;14.73
72794;BME280;63436;26.334;50.194;2023-05-15T07:54:05;100819.00;;;31.72;14.91
72794;BME280;63436;26.334;50.194;2023-05-15T07:56:32;100810.73;;;31.88;15.36
72794;BME280;63436;26.334;50.194;2023-05-15T07:58:58;100803.63;;;31.39;15.41
72794;BME280;63436;26.334;50.194;2023-05-15T08:01:25;100799.71;;;31.07;15.36
72794;BME280;63436;26.334;50.194;2023-05-15T08:03:51;100800.30;;;31.75;15.81
72794;BME280;63436;26.334;50.194;2023-05-15T08:06:16;100786.76;;;32.69;16.06
72794;BME280;63436;26.334;50.194;2023-05-15T08:08:43;100791.15;;;32.10;15.65
72794;BME280;63436;26.334;50.194;2023-05-15T08:11:08;100789.65;;;31.95;15.65
72794;BME280;63436;26.334;50.194;2023-05-15T08:13:34;100784.75;;;32.67;15.46
72794;BME280;63436;26.334;50.194;2023-05-15T08:16:00;100775.70;;;32.89;15.17
72794;BME280;63436;26.334;50.194;2023-05-15T08:18:25;100775.74;;;33.87;15.06
72794;BME280;63436;26.334;50.194;2023-05-15T08:20:51;100777.18;;;31.87;14.66
72794;BME280;63436;26.334;50.194;2023-05-15T08:23:17;100774.14;;;32.13;16.08
72794;BME280;63436;26.334;50.194;2023-05-15T08:25:43;100777.36;;;32.04;15.16
72794;BME280;63436;26.334;50.194;2023-05-15T08:28:09;100774.67;;;31.61;15.17
72794;BME280;63436;26.334;50.194;2023-05-15T08:30:34;100776.90;;;31.25;16.16
72794;BME280;63436;26.334;50.194;2023-05-15T08:33:01;100763.80;;;32.15;14.60
72794;BME280;63436;26.334;50.194;2023-05-15T08:35:26;100759.99;;;32.43;15.09
72794;BME280;63436;26.334;50.194;2023-05-15T08:37:53;100755.15;;;32.93;14.54
72794;BME280;63436;26.334;50.194;2023-05-15T08:40:18;100749.59;;;33.27;14.72
72794;BME280;63436;26.334;50.194;2023-05-15T08:42:48;100750.36;;;33.51;14.16
72794;BME280;63436;26.334;50.194;2023-05-15T08:45:12;100745.82;;;32.35;13.64
72794;BME280;63436;26.334;50.194;2023-05-15T08:47:39;100737.79;;;33.04;13.34
72794;BME280;63436;26.334;50.194;2023-05-15T08:50:06;100735.91;;;32.80;12.88
72794;BME280;63436;26.334;50.194;2023-05-15T08:52:28;100731.71;;;32.92;13.01
72794;BME280;63436;26.334;50.194;2023-05-15T08:54:53;100731.12;;;33.02;13.47
72794;BME280;63436;26.334;50.194;2023-05-15T08:57:20;100733.88;;;32.53;13.91
72794;BME280;63436;26.334;50.194;2023-05-15T08:59:45;100728.35;;;32.81;13.04
72794;BME280;63436;26.334;50.194;2023-05-15T09:02:11;100723.09;;;32.44;12.80
72794;BME280;63436;26.334;50.194;2023-05-15T09:04:36;100718.01;;;32.47;12.88
72794;BME280;63436;26.334;50.194;2023-05-15T09:07:03;100718.48;;;33.24;12.71
72794;BME280;63436;26.334;50.194;2023-05-15T09:09:30;100704.70;;;32.78;12.90
72794;BME280;63436;26.334;50.194;2023-05-15T09:11:54;100695.77;;;32.79;13.30
72794;BME280;63436;26.334;50.194;2023-05-15T09:14:21;100686.13;;;32.40;12.80
72794;BME280;63436;26.334;50.194;2023-05-15T09:16:51;100683.31;;;32.96;13.86
72794;BME280;63436;26.334;50.194;2023-05-15T09:19:13;100681.71;;;32.41;14.23
72794;BME280;63436;26.334;50.194;2023-05-15T09:21:39;100687.76;;;33.68;14.47
72794;BME280;63436;26.334;50.194;2023-05-15T09:24:14;100679.12;;;32.46;16.15
72794;BME280;63436;26.334;50.194;2023-05-15T09:26:29;100683.35;;;34.06;15.39
72794;BME280;63436;26.334;50.194;2023-05-15T09:29:01;100674.91;;;33.58;13.83
72794;BME280;63436;26.334;50.194;2023-05-15T09:31:22;100672.81;;;33.67;13.37
72794;BME280;63436;26.334;50.194;2023-05-15T09:36:20;100688.10;;;34.99;13.30
72794;BME280;63436;26.334;50.194;2023-05-15T09:38:40;100694.20;;;35.14;12.60
72794;BME280;63436;26.334;50.194;2023-05-15T09:41:07;100709.77;;;34.75;11.88
72794;BME280;63436;26.334;50.194;2023-05-15T09:43:34;100721.61;;;34.76;10.94
72794;BME280;63436;26.334;50.194;2023-05-15T09:45:57;100724.32;;;33.77;12.93
72794;BME280;63436;26.334;50.194;2023-05-15T09:48:22;100720.04;;;33.73;13.36
72794;BME280;63436;26.334;50.194;2023-05-15T09:50:48;100723.69;;;33.97;12.91
72794;BME280;63436;26.334;50.194;2023-05-15T09:53:13;100724.11;;;33.92;13.15
72794;BME280;63436;26.334;50.194;2023-05-15T09:55:41;100709.68;;;35.29;11.23
72794;BME280;63436;26.334;50.194;2023-05-15T09:58:06;100712.88;;;33.91;13.27
72794;BME280;63436;26.334;50.194;2023-05-15T10:00:31;100712.21;;;32.44;13.17
72794;BME280;63436;26.334;50.194;2023-05-15T10:02:57;100711.38;;;33.23;13.88
72794;BME280;63436;26.334;50.194;2023-05-15T10:05:26;100708.06;;;32.59;15.69
72794;BME280;63436;26.334;50.194;2023-05-15T10:07:53;100707.02;;;32.95;14.90
72794;BME280;63436;26.334;50.194;2023-05-15T10:10:13;100700.31;;;33.44;15.51
72794;BME280;63436;26.334;50.194;2023-05-15T10:12:39;100700.73;;;34.08;14.78
72794;BME280;63436;26.334;50.194;2023-05-15T10:15:06;100703.15;;;33.47;14.12
72794;BME280;63436;26.334;50.194;2023-05-15T10:17:34;100698.62;;;32.18;13.66
72794;BME280;63436;26.334;50.194;2023-05-15T10:19:58;100700.09;;;32.92;14.08
72794;BME280;63436;26.334;50.194;2023-05-15T10:22:28;100696.65;;;32.55;15.04
72794;BME280;63436;26.334;50.194;2023-05-15T10:24:55;100688.51;;;32.32;14.54
72794;BME280;63436;26.334;50.194;2023-05-15T10:27:15;100691.13;;;32.06;14.42
72794;BME280;63436;26.334;50.194;2023-05-15T10:29:40;100679.23;;;33.00;14.69
72794;BME280;63436;26.334;50.194;2023-05-15T10:32:05;100673.23;;;34.17;14.86
72794;BME280;63436;26.334;50.194;2023-05-15T10:34:35;100667.92;;;34.08;14.93
72794;BME280;63436;26.334;50.194;2023-05-15T10:36:57;100669.29;;;33.98;15.17
72794;BME280;63436;26.334;50.194;2023-05-15T10:39:23;100665.98;;;32.61;14.94
72794;BME280;63436;26.334;50.194;2023-05-15T10:41:50;100663.09;;;33.32;13.88
72794;BME280;63436;26.334;50.194;2023-05-15T10:44:16;100665.17;;;33.81;13.81
72794;BME280;63436;26.334;50.194;2023-05-15T10:46:41;100663.71;;;32.88;13.84
72794;BME280;63436;26.334;50.194;2023-05-15T10:49:07;100656.94;;;32.77;14.93
72794;BME280;63436;26.334;50.194;2023-05-15T10:51:32;100655.47;;;32.91;14.72
72794;BME280;63436;26.334;50.194;2023-05-15T10:54:00;100653.06;;;32.06;15.14
72794;BME280;63436;26.334;50.194;2023-05-15T10:56:27;100647.03;;;32.74;15.00
72794;BME280;63436;26.334;50.194;2023-05-15T10:58:51;100644.57;;;33.89;14.94
72794;BME280;63436;26.334;50.194;2023-05-15T11:01:26;100639.69;;;33.54;15.25
72794;BME280;63436;26.334;50.194;2023-05-15T11:03:41;100638.21;;;33.64;14.96
72794;BME280;63436;26.334;50.194;2023-05-15T11:06:08;100636.81;;;33.55;14.89
72794;BME280;63436;26.334;50.194;2023-05-15T11:08:35;100635.87;;;33.21;15.21
72794;BME280;63436;26.334;50.194;2023-05-15T11:11:00;100635.26;;;33.18;15.40
72794;BME280;63436;26.334;50.194;2023-05-15T11:13:26;100631.77;;;33.32;15.66
72794;BME280;63436;26.334;50.194;2023-05-15T11:15:53;100629.98;;;33.35;15.32
72794;BME280;63436;26.334;50.194;2023-05-15T11:18:19;100619.35;;;32.55;15.20
72794;BME280;63436;26.334;50.194;2023-05-15T11:23:09;100616.61;;;32.85;15.33
72794;BME280;63436;26.334;50.194;2023-05-15T11:25:35;100613.77;;;33.01;15.67
72794;BME280;63436;26.334;50.194;2023-05-15T11:28:02;100622.90;;;33.33;15.74
72794;BME280;63436;26.334;50.194;2023-05-15T11:30:36;100615.59;;;31.86;16.28
72794;BME280;63436;26.334;50.194;2023-05-15T11:32:54;100609.89;;;32.50;15.73
72794;BME280;63436;26.334;50.194;2023-05-15T11:35:20;100611.77;;;31.92;16.26
72794;BME280;63436;26.334;50.194;2023-05-15T11:37:46;100606.15;;;32.62;15.84
72794;BME280;63436;26.334;50.194;2023-05-15T11:40:13;100609.33;;;32.35;16.07
72794;BME280;63436;26.334;50.194;2023-05-15T11:42:35;100607.56;;;32.89;15.75
72794;BME280;63436;26.334;50.194;2023-05-15T11:45:01;100605.78;;;33.28;15.55
72794;BME280;63436;26.334;50.194;2023-05-15T11:47:29;100609.66;;;32.10;16.25
72794;BME280;63436;26.334;50.194;2023-05-15T11:49:52;100605.70;;;32.44;15.95
72794;BME280;63436;26.334;50.194;2023-05-15T11:52:17;100606.73;;;31.65;16.48
72794;BME280;63436;26.334;50.194;2023-05-15T11:54:43;100598.25;;;31.25;17.08
72794;BME280;63436;26.334;50.194;2023-05-15T11:57:09;100595.63;;;32.99;15.84
72794;BME280;63436;26.334;50.194;2023-05-15T11:59:35;100602.14;;;32.55;16.01
72794;BME280;63436;26.334;50.194;2023-05-15T12:02:00;100599.22;;;32.85;15.85
72794;BME280;63436;26.334;50.194;2023-05-15T12:04:26;100593.31;;;34.00;14.89
72794;BME280;63436;26.334;50.194;2023-05-15T12:06:53;100595.01;;;32.76;14.74
72794;BME280;63436;26.334;50.194;2023-05-15T12:09:18;100604.98;;;32.18;14.48
72794;BME280;63436;26.334;50.194;2023-05-15T12:11:48;100602.50;;;31.87;14.94
72794;BME280;63436;26.334;50.194;2023-05-15T12:14:10;100610.26;;;32.72;14.67
72794;BME280;63436;26.334;50.194;2023-05-15T12:16:35;100604.41;;;32.69;14.76
72794;BME280;63436;26.334;50.194;2023-05-15T12:19:00;100596.15;;;31.43;15.60
72794;BME280;63436;26.334;50.194;2023-05-15T12:21:27;100599.23;;;32.17;15.33
72794;BME280;63436;26.334;50.194;2023-05-15T12:23:57;100595.28;;;31.78;15.32
72794;BME280;63436;26.334;50.194;2023-05-15T12:26:20;100603.96;;;32.34;15.40
72794;BME280;63436;26.334;50.194;2023-05-15T12:28:46;100595.34;;;32.47;15.19
72794;BME280;63436;26.334;50.194;2023-05-15T12:31:11;100598.94;;;31.57;14.85
72794;BME280;63436;26.334;50.194;2023-05-15T12:33:37;100597.22;;;31.57;15.32
72794;BME280;63436;26.334;50.194;2023-05-15T12:36:03;100597.45;;;32.09;14.99
72794;BME280;63436;26.334;50.194;2023-05-15T12:38:28;100605.45;;;31.87;15.16
72794;BME280;63436;26.334;50.194;2023-05-15T12:40:55;100609.09;;;32.83;14.40
72794;BME280;63436;26.334;50.194;2023-05-15T12:43:24;100597.91;;;32.10;15.20
72794;BME280;63436;26.334;50.194;2023-05-15T12:45:51;100600.29;;;31.86;15.94